createdAt,value
2023-05-21T00:00:26.728Z,99.90
2023-05-21T02:38:10.842Z,99.90
2023-05-21T02:51:00.176Z,1.00
2023-05-21T02:56:51.568Z,1.00
2023-05-21T03:08:59.517Z,1.00
2023-05-21T03:12:11.211Z,1.00
2023-05-21T03:14:56.641Z,1.00
2023-05-21T03:18:33.423Z,1.00
2023-05-21T03:21:26.682Z,1.00
2023-05-21T03:27:51.268Z,1.00
2023-05-21T03:31:18.987Z,1.00
2023-05-21T03:33:57.690Z,1.00
2023-05-21T03:41:49.812Z,1.00
2023-05-21T03:44:26.593Z,1.00
2023-05-21T03:47:20.849Z,1.00
2023-05-21T03:50:59.450Z,1.00
2023-05-21T03:53:48.949Z,1.00
2023-05-21T03:56:27.074Z,1.00
2023-05-21T03:59:26.751Z,1.00
2023-05-21T04:02:30.703Z,1.00
2023-05-21T04:05:14.647Z,1.00
2023-05-21T04:07:59.905Z,1.00
2023-05-21T04:10:42.362Z,1.00
2023-05-21T04:16:59.822Z,99.90
2023-05-21T04:20:10.470Z,99.90
2023-05-21T04:22:56.165Z,99.90
2023-05-21T04:25:38.497Z,99.90
2023-05-21T04:28:18.007Z,99.90
2023-05-21T04:30:59.587Z,99.90
2023-05-21T04:34:04.447Z,24.30
2023-05-21T04:36:41.316Z,1.00
2023-05-21T04:39:22.699Z,1.00
2023-05-21T04:41:56.662Z,1.00
2023-05-21T04:44:43.499Z,1.00
2023-05-21T04:47:37.389Z,1.00
2023-05-21T04:50:25.214Z,1.00
2023-05-21T04:53:37.566Z,1.00
2023-05-21T04:56:28.202Z,1.00
2023-05-21T05:05:11.413Z,1.00
2023-05-21T05:08:04.808Z,1.00
2023-05-21T05:10:57.078Z,1.00
2023-05-21T05:28:02.661Z,1.00
2023-05-21T05:36:49.915Z,1.00
2023-05-21T05:39:20.370Z,1.00
2023-05-21T05:42:33.308Z,1.00
2023-05-21T05:45:29.884Z,1.00
2023-05-21T05:48:04.462Z,1.00
2023-05-21T05:51:01.184Z,1.00
2023-05-21T05:56:41.511Z,1.00
2023-05-21T05:59:21.448Z,1.00
2023-05-21T06:01:55.738Z,1.00
2023-05-21T06:04:30.444Z,1.00
2023-05-21T06:10:46.076Z,11.40
2023-05-21T06:17:08.699Z,45.90
2023-05-21T06:19:50.397Z,84.60
2023-05-21T06:22:39.644Z,93.80
2023-05-21T06:25:13.796Z,29.60
2023-05-21T06:28:30.973Z,30.70
2023-05-21T06:31:06.832Z,15.50
2023-05-21T06:33:39.068Z,12.90
2023-05-21T06:36:10.419Z,19.60
2023-05-21T06:38:56.245Z,6.60
2023-05-21T06:41:26.714Z,1.00
2023-05-21T06:44:28.305Z,16.80
2023-05-21T06:47:19.075Z,1.00
2023-05-21T06:50:06.896Z,1.00
2023-05-21T06:53:35.486Z,1.00
2023-05-21T06:59:34.946Z,1.00
2023-05-21T07:07:09.179Z,1.00
2023-05-21T07:09:41.517Z,1.00
2023-05-21T07:13:11.575Z,1.00
2023-05-21T07:15:39.196Z,1.00
2023-05-21T07:18:13.998Z,1.00
2023-05-21T07:20:41.347Z,99.90
2023-05-21T07:23:30.957Z,99.90
2023-05-21T07:26:15.434Z,99.90
2023-05-21T07:28:51.202Z,99.90
2023-05-21T07:38:40.317Z,99.90
2023-05-21T07:41:25.632Z,99.90
2023-05-21T07:43:56.060Z,99.90
2023-05-21T07:46:35.195Z,99.90
2023-05-21T07:52:40.417Z,99.90
2023-05-21T07:55:12.206Z,99.90
2023-05-21T07:58:10.369Z,99.90
2023-05-21T08:01:19.965Z,99.90
2023-05-21T08:07:09.404Z,99.90
2023-05-21T08:09:36.897Z,99.90
2023-05-21T08:12:04.985Z,99.90
2023-05-21T08:14:33.934Z,99.90
2023-05-21T08:17:03.972Z,99.90
2023-05-21T08:19:35.839Z,99.90
2023-05-21T08:22:08.426Z,99.90
2023-05-21T08:25:00.907Z,99.90
2023-05-21T08:27:28.115Z,99.90
2023-05-21T08:29:55.227Z,99.90
2023-05-21T08:32:30.481Z,99.90
2023-05-21T08:34:58.329Z,99.90
2023-05-21T08:37:49.224Z,99.90
2023-05-21T08:40:24.204Z,99.90
2023-05-21T08:42:53.341Z,99.90
2023-05-21T08:45:42.754Z,99.90
2023-05-21T08:48:14.980Z,99.90
2023-05-21T08:50:43.134Z,99.90
2023-05-21T08:53:27.206Z,99.90
2023-05-21T08:55:57.565Z,99.90
2023-05-21T08:58:33.898Z,99.90
2023-05-21T09:01:01.724Z,99.90
2023-05-21T09:03:33.331Z,99.90
2023-05-21T09:06:00.934Z,99.90
2023-05-21T09:08:35.329Z,99.90
2023-05-21T09:11:12.797Z,99.90
2023-05-21T09:13:47.663Z,99.90
2023-05-21T09:16:22.133Z,99.90
2023-05-21T09:18:49.819Z,99.90
2023-05-21T09:21:27.877Z,99.90
2023-05-21T09:24:06.576Z,99.90
2023-05-21T09:26:34.210Z,99.90
2023-05-21T09:29:04.746Z,99.90
2023-05-21T09:31:33.092Z,99.90
2023-05-21T09:34:01.437Z,99.90
2023-05-21T09:36:29.650Z,99.90
2023-05-21T09:39:00.082Z,99.90
2023-05-21T09:41:37.059Z,99.90
2023-05-21T09:44:05.425Z,99.90
2023-05-21T09:46:40.584Z,99.90
2023-05-21T09:49:23.731Z,99.90
2023-05-21T09:51:54.753Z,99.90
2023-05-21T09:54:22.671Z,99.90
2023-05-21T09:56:51.198Z,99.90
2023-05-21T09:59:18.332Z,99.90
2023-05-21T10:01:46.144Z,99.90
2023-05-21T10:04:14.083Z,99.90
2023-05-21T10:06:45.666Z,99.90
2023-05-21T10:09:15.770Z,99.90
2023-05-21T10:11:45.126Z,99.90
2023-05-21T10:14:17.698Z,99.90
2023-05-21T10:16:51.282Z,99.90
2023-05-21T10:19:19.755Z,99.90
2023-05-21T10:21:47.976Z,99.90
2023-05-21T10:24:17.147Z,99.90
2023-05-21T10:26:46.399Z,99.90
2023-05-21T10:32:34.974Z,99.90
2023-05-21T10:35:09.416Z,99.90
2023-05-21T10:37:39.096Z,99.90
2023-05-21T10:40:08.970Z,99.90
2023-05-21T10:46:03.802Z,99.90
2023-05-21T10:49:08.527Z,99.90
2023-05-21T10:52:26.217Z,99.90
2023-05-21T10:54:54.745Z,99.90
2023-05-21T11:00:13.202Z,99.90
2023-05-21T11:03:24.047Z,99.90
2023-05-21T11:06:17.550Z,99.90
2023-05-21T11:12:11.045Z,99.90
2023-05-21T11:14:48.115Z,99.90
2023-05-21T11:20:48.554Z,99.90
2023-05-21T11:23:20.485Z,99.90
2023-05-21T11:26:07.211Z,99.90
2023-05-21T11:28:35.455Z,99.90
2023-05-21T11:31:25.814Z,99.90
2023-05-21T11:34:11.339Z,99.90
2023-05-21T11:36:39.422Z,99.90
2023-05-21T11:39:24.939Z,99.90
2023-05-21T11:42:03.133Z,99.90
2023-05-21T11:44:42.074Z,99.90
2023-05-21T11:47:11.178Z,99.90
2023-05-21T11:49:39.134Z,99.90
2023-05-21T11:52:07.878Z,99.90
2023-05-21T11:54:48.302Z,99.90
2023-05-21T11:57:19.629Z,99.90
2023-05-21T11:59:54.153Z,99.90
2023-05-21T12:02:25.486Z,99.90
2023-05-21T12:04:53.049Z,99.90
2023-05-21T12:07:20.847Z,99.90
2023-05-21T12:09:51.506Z,99.90
2023-05-21T12:12:23.942Z,99.90
2023-05-21T12:14:51.829Z,99.90
2023-05-21T12:17:20.675Z,99.90
2023-05-21T12:19:49.561Z,99.90
2023-05-21T12:22:16.790Z,99.90
2023-05-21T12:24:47.309Z,99.90
2023-05-21T12:27:17.155Z,99.90
2023-05-21T12:29:46.655Z,99.90
2023-05-21T12:32:17.831Z,99.90
2023-05-21T12:34:51.481Z,99.90
2023-05-21T12:37:32.685Z,99.90
2023-05-21T12:40:01.294Z,99.90
2023-05-21T12:42:35.028Z,99.90
2023-05-21T12:45:10.013Z,99.90
2023-05-21T12:47:37.329Z,99.90
2023-05-21T12:50:08.564Z,99.90
2023-05-21T12:52:35.672Z,99.90
2023-05-21T12:55:02.910Z,99.90
2023-05-21T12:57:38.960Z,99.90
2023-05-21T13:00:08.960Z,99.90
2023-05-21T13:02:41.829Z,99.90
2023-05-21T13:05:11.283Z,99.90
2023-05-21T13:07:39.698Z,99.90
2023-05-21T13:10:07.708Z,99.90
2023-05-21T13:12:35.495Z,99.90
2023-05-21T13:15:08.626Z,99.90
2023-05-21T13:17:36.041Z,99.90
2023-05-21T13:20:32.456Z,99.90
2023-05-21T13:22:59.530Z,99.90
2023-05-21T13:25:30.473Z,99.90
2023-05-21T13:27:59.674Z,99.90
2023-05-21T13:30:26.853Z,99.90
2023-05-21T13:32:55.773Z,99.90
2023-05-21T13:35:22.913Z,99.90
2023-05-21T13:37:50.022Z,99.90
2023-05-21T13:40:17.338Z,99.90
2023-05-21T13:42:46.136Z,99.90
2023-05-21T13:45:19.622Z,99.90
2023-05-21T13:47:49.514Z,99.90
2023-05-21T13:50:18.280Z,99.90
2023-05-21T13:52:46.365Z,99.90
2023-05-21T13:55:16.018Z,99.90
2023-05-21T13:57:43.815Z,99.90
2023-05-21T14:00:14.213Z,99.90
2023-05-21T14:02:44.834Z,99.90
2023-05-21T14:05:13.619Z,99.90
2023-05-21T14:07:40.784Z,99.90
2023-05-21T14:10:08.413Z,99.90
2023-05-21T14:12:35.537Z,99.90
2023-05-21T14:15:02.545Z,99.90
2023-05-21T14:17:29.533Z,99.90
2023-05-21T14:19:56.508Z,99.90
2023-05-21T14:22:23.724Z,99.90
2023-05-21T14:24:51.474Z,99.90
2023-05-21T14:27:18.463Z,99.90
2023-05-21T14:29:45.533Z,99.90
2023-05-21T14:32:12.666Z,99.90
2023-05-21T14:34:40.450Z,99.90
2023-05-21T14:37:07.553Z,99.90
2023-05-21T14:39:34.592Z,99.90
2023-05-21T14:42:04.757Z,99.90
2023-05-21T14:44:32.548Z,99.90
2023-05-21T14:46:59.807Z,99.90
2023-05-21T14:49:27.005Z,99.90
2023-05-21T14:51:54.027Z,99.90
2023-05-21T14:54:21.121Z,99.90
2023-05-21T14:56:48.171Z,99.90
2023-05-21T14:59:15.284Z,99.90
2023-05-21T15:01:42.428Z,99.90
2023-05-21T15:04:09.975Z,99.90
2023-05-21T15:06:38.621Z,99.90
2023-05-21T15:09:05.748Z,99.90
2023-05-21T15:11:34.174Z,99.90
2023-05-21T15:14:01.116Z,99.90
2023-05-21T15:16:28.273Z,99.90
2023-05-21T15:18:57.550Z,99.90
2023-05-21T15:21:27.287Z,99.90
2023-05-21T15:23:55.189Z,99.90
2023-05-21T15:26:22.782Z,99.90
2023-05-21T15:28:49.683Z,99.90
2023-05-21T15:31:16.936Z,99.90
2023-05-21T15:33:44.025Z,99.90
2023-05-21T15:36:11.258Z,99.90
2023-05-21T15:38:38.441Z,99.90
2023-05-21T15:41:06.337Z,99.90
2023-05-21T15:43:36.900Z,99.90
2023-05-21T15:46:04.362Z,99.90
2023-05-21T15:48:31.323Z,99.90
2023-05-21T15:50:58.437Z,99.90
2023-05-21T15:53:25.598Z,99.90
2023-05-21T15:55:52.595Z,99.90
2023-05-21T15:58:19.630Z,99.90
2023-05-21T16:00:46.642Z,99.90
2023-05-21T16:03:13.959Z,99.90
2023-05-21T16:05:41.079Z,99.90
2023-05-21T16:08:10.868Z,99.90
2023-05-21T16:10:40.077Z,99.90
2023-05-21T16:13:07.223Z,99.90
2023-05-21T16:15:34.761Z,99.90
2023-05-21T16:18:01.929Z,99.90
2023-05-21T16:20:30.822Z,99.90
2023-05-21T16:22:57.972Z,99.90
2023-05-21T16:25:24.942Z,99.90
2023-05-21T16:27:52.059Z,99.90
2023-05-21T16:30:19.268Z,99.90
2023-05-21T16:32:46.335Z,99.90
2023-05-21T16:35:13.563Z,99.90
2023-05-21T16:37:40.804Z,99.90
2023-05-21T16:40:08.373Z,99.90
2023-05-21T16:42:35.348Z,99.90
2023-05-21T16:45:02.462Z,99.90
2023-05-21T16:47:29.661Z,99.90
2023-05-21T16:49:56.763Z,99.90
2023-05-21T16:52:24.359Z,99.90
2023-05-21T16:54:51.589Z,99.90
2023-05-21T16:57:18.787Z,99.90
2023-05-21T16:59:46.200Z,99.90
2023-05-21T17:02:13.974Z,99.90
2023-05-21T17:04:41.211Z,99.90
2023-05-21T17:07:08.116Z,99.90
2023-05-21T17:09:39.218Z,99.90
2023-05-21T17:12:06.543Z,99.90
2023-05-21T17:14:34.900Z,99.90
2023-05-21T17:17:02.589Z,99.90
2023-05-21T17:19:29.742Z,99.90
2023-05-21T17:21:57.295Z,99.90
2023-05-21T17:24:24.463Z,99.90
2023-05-21T17:26:52.842Z,99.90
2023-05-21T17:29:19.997Z,99.90
2023-05-21T17:31:47.139Z,99.90
2023-05-21T17:34:14.130Z,99.90
2023-05-21T17:36:41.146Z,99.90
2023-05-21T17:39:08.473Z,99.90
2023-05-21T17:41:35.511Z,99.90
2023-05-21T17:44:02.457Z,99.90
2023-05-21T17:46:29.642Z,99.90
2023-05-21T17:48:56.940Z,99.90
2023-05-21T17:51:23.978Z,99.90
2023-05-21T17:53:51.077Z,99.90
2023-05-21T17:56:18.230Z,99.90
2023-05-21T17:58:45.369Z,99.90
2023-05-21T18:01:12.548Z,99.90
2023-05-21T18:03:39.762Z,99.90
2023-05-21T18:06:08.765Z,99.90
2023-05-21T18:08:36.739Z,99.90
2023-05-21T18:11:03.747Z,99.90
2023-05-21T18:13:30.793Z,99.90
2023-05-21T18:15:58.658Z,99.90
2023-05-21T18:18:25.832Z,99.90
2023-05-21T18:20:53.280Z,99.90
2023-05-21T18:23:21.260Z,99.90
2023-05-21T18:25:49.924Z,99.90
2023-05-21T18:28:17.022Z,99.90
2023-05-21T18:30:44.099Z,99.90
2023-05-21T18:33:12.611Z,99.90
2023-05-21T18:35:39.636Z,99.90
2023-05-21T18:38:09.991Z,99.90
2023-05-21T18:40:38.047Z,99.90
2023-05-21T18:43:06.452Z,99.90
2023-05-21T18:45:34.156Z,99.90
2023-05-21T18:48:02.977Z,99.90
2023-05-21T18:50:31.765Z,99.90
2023-05-21T18:52:59.017Z,99.90
2023-05-21T18:55:26.585Z,99.90
2023-05-21T18:57:54.748Z,99.90
2023-05-21T19:00:22.077Z,99.90
2023-05-21T19:02:49.421Z,99.90
2023-05-21T19:05:16.857Z,99.90
2023-05-21T19:07:43.993Z,99.90
2023-05-21T19:10:12.371Z,99.90
2023-05-21T19:12:39.740Z,99.90
2023-05-21T19:15:07.688Z,99.90
2023-05-21T19:17:36.436Z,99.90
2023-05-21T19:20:05.457Z,99.90
2023-05-21T19:22:32.945Z,99.90
2023-05-21T19:25:00.793Z,99.90
2023-05-21T19:27:29.412Z,99.90
2023-05-21T19:29:56.442Z,99.90
2023-05-21T19:32:23.855Z,99.90
2023-05-21T19:34:52.582Z,99.90
2023-05-21T19:37:19.661Z,99.90
2023-05-21T19:39:50.033Z,99.90
2023-05-21T19:42:21.479Z,99.90
2023-05-21T19:44:48.606Z,99.90
2023-05-21T19:47:15.670Z,99.90
2023-05-21T19:49:42.815Z,99.90
2023-05-21T19:52:10.546Z,99.90
2023-05-21T19:54:37.690Z,99.90
2023-05-21T19:57:04.908Z,99.90
2023-05-21T19:59:31.943Z,99.90
2023-05-21T20:01:59.055Z,99.90
2023-05-21T20:04:26.176Z,99.90
2023-05-21T20:06:53.384Z,99.90
2023-05-21T20:09:20.601Z,99.90
2023-05-21T20:11:48.352Z,99.90
2023-05-21T20:14:15.579Z,99.90
2023-05-21T20:16:42.780Z,99.90
2023-05-21T20:19:10.909Z,99.90
2023-05-21T20:21:38.128Z,99.90
2023-05-21T20:24:05.768Z,99.90
2023-05-21T20:26:35.112Z,99.90
2023-05-21T20:29:02.421Z,99.90
2023-05-21T20:31:29.670Z,99.90
2023-05-21T20:34:10.441Z,99.90
2023-05-21T20:36:48.467Z,99.90
2023-05-21T20:39:16.757Z,99.90
2023-05-21T20:41:51.121Z,99.90
2023-05-21T20:44:37.831Z,99.90
2023-05-21T21:12:32.190Z,99.90
2023-05-21T22:13:29.893Z,99.90
2023-05-21T22:16:35.638Z,99.90
2023-05-21T22:23:58.254Z,99.90
2023-05-21T22:27:06.580Z,99.90
2023-05-21T22:29:45.559Z,99.90
2023-05-21T22:32:41.901Z,99.90
2023-05-21T22:35:36.535Z,99.90
2023-05-21T22:38:03.847Z,99.90
2023-05-21T22:40:50.448Z,99.90
2023-05-21T22:43:24.973Z,99.90
2023-05-21T22:45:55.734Z,99.90
2023-05-21T22:48:23.303Z,99.90
2023-05-21T22:50:57.643Z,99.90
2023-05-21T22:53:29.346Z,99.90
2023-05-21T22:56:11.133Z,99.90
2023-05-21T22:59:13.935Z,99.90
2023-05-21T23:02:18.071Z,99.90
2023-05-21T23:04:46.074Z,99.90
2023-05-21T23:07:33.286Z,99.90
2023-05-21T23:10:01.621Z,99.90
2023-05-21T23:12:30.556Z,99.90
2023-05-21T23:15:07.604Z,99.90
2023-05-21T23:17:40.771Z,99.90
2023-05-21T23:20:09.141Z,99.90
2023-05-21T23:22:37.941Z,99.90
2023-05-21T23:25:38.530Z,99.90
2023-05-21T23:28:09.617Z,99.90
2023-05-21T23:30:38.084Z,99.90
2023-05-21T23:33:06.890Z,99.90
2023-05-21T23:35:34.819Z,99.90
2023-05-21T23:38:02.839Z,99.90
2023-05-21T23:40:31.407Z,99.90
2023-05-21T23:43:05.200Z,99.90
2023-05-21T23:45:35.515Z,99.90
2023-05-21T23:48:06.312Z,99.90
2023-05-21T23:50:39.935Z,99.90
2023-05-21T23:53:19.141Z,99.90
2023-05-21T23:58:46.210Z,99.90
